메인 페이지
METAR-TAF:

METAR-TAF

공항 :

루안다 콰트루 드 페베레이루 공항

루안다, 앙골라

위도: 08-51S, 경도: 013-14E, 고도: 74m

현재 날씨관측

예보는 33분 전, 09:00시(UTC)에 발표되었습니다.
남동5kt
온도 29°C
습도 66%
기압 1014 hPa
시정 10km 이상
고도 2200ft 상공 구름 보통

METAR: FNLU 040900Z 13005KT 9999 SCT022 29/22 Q1014 NOSIG

시각: 10:33 (09:33 UTC)

예보

예보는 4 시간 33분 전, 05:00시(UTC)에 발표되었습니다.
예보 대상 시간: 04일 06시부터 05일 18시까지 (UTC)
남남동5kt
시정: 8000m
고도 1500ft 상공 구름 많음
일시적
04일 12시부터 04일 16시까지 (UTC)
서남서12kt
시정 10km 이상
고도 2000ft 상공 구름 조금

TAF: FNLU 040500Z 0406/0518 16005KT 8000 BKN015 TEMPO 0412/0416 24012KT 9999 FEW020

4,000개 이상의 공항 관측 자료 및 예보 (METAR 및 TAF 보고).

지도상에서 검색 가능한 기상관측소가 노란 점과 빨간 점으로 표시되어 있습니다.

기상관측소 명을 보려면 표시 위로 마우스를 이동하세요.

날씨 관측과 예보를 보려면 클릭하세요.

지도 변경 : 확대하려면 엑스 표시가 있는 녹색 버튼, 축소하려면 빼기 표시가 있는 녹색 버튼, 다음 페이지의 지도를 보려면 녹색 화살표를 클릭하세요.


METAR-TAF: